createdAt,value
2022-12-17T00:01:26.718Z,10.15
2022-12-17T00:04:13.601Z,8.48
2022-12-17T00:07:00.044Z,11.20
2022-12-17T00:09:50.532Z,6.20
2022-12-17T00:12:36.787Z,6.70
2022-12-17T00:15:24.221Z,9.25
2022-12-17T00:18:10.784Z,8.02
2022-12-17T00:20:57.615Z,7.15
2022-12-17T00:23:44.147Z,8.95
2022-12-17T00:26:30.728Z,8.15
2022-12-17T00:29:17.036Z,8.40
2022-12-17T00:32:04.032Z,7.05
2022-12-17T00:34:50.332Z,8.65
2022-12-17T00:37:36.784Z,8.68
2022-12-17T00:40:23.665Z,9.20
2022-12-17T00:43:28.035Z,12.07
2022-12-17T00:46:15.009Z,12.20
2022-12-17T00:49:02.364Z,11.80
2022-12-17T00:51:49.516Z,13.07
2022-12-17T00:54:36.514Z,10.48
2022-12-17T00:57:24.128Z,8.90
2022-12-17T01:00:13.181Z,7.62
2022-12-17T01:02:59.871Z,8.43
2022-12-17T01:05:46.524Z,7.65
2022-12-17T01:08:34.517Z,6.87
2022-12-17T01:11:24.742Z,7.57
2022-12-17T01:14:14.211Z,6.78
2022-12-17T01:17:01.141Z,6.57
2022-12-17T01:19:47.601Z,7.22
2022-12-17T01:22:35.417Z,5.30
2022-12-17T01:25:21.989Z,5.78
2022-12-17T01:28:09.482Z,8.57
2022-12-17T01:30:59.023Z,6.50
2022-12-17T01:33:45.935Z,6.62
2022-12-17T01:36:32.387Z,5.00
2022-12-17T01:39:18.999Z,6.57
2022-12-17T01:42:05.457Z,6.97
2022-12-17T01:45:01.355Z,5.30
2022-12-17T01:48:06.464Z,5.47
2022-12-17T01:51:00.424Z,6.62
2022-12-17T01:54:00.150Z,5.93
2022-12-17T01:56:47.581Z,5.55
2022-12-17T01:59:35.650Z,5.68
2022-12-17T02:02:27.940Z,4.40
2022-12-17T02:05:16.121Z,4.82
2022-12-17T02:08:24.639Z,4.97
2022-12-17T02:11:41.419Z,5.30
2022-12-17T02:14:31.851Z,3.62
2022-12-17T02:17:22.248Z,5.15
2022-12-17T02:20:21.756Z,6.43
2022-12-17T02:23:34.518Z,3.85
2022-12-17T02:27:02.860Z,4.68
2022-12-17T02:29:58.545Z,4.45
2022-12-17T02:32:46.589Z,5.45
2022-12-17T02:35:36.533Z,6.07
2022-12-17T02:38:41.696Z,6.82
2022-12-17T02:41:36.246Z,5.85
2022-12-17T02:44:26.124Z,6.00
2022-12-17T02:47:14.910Z,6.03
2022-12-17T02:50:06.168Z,4.10
2022-12-17T02:53:01.698Z,5.00
2022-12-17T02:55:48.642Z,5.10
2022-12-17T02:58:35.514Z,4.60
2022-12-17T03:01:23.995Z,4.68
2022-12-17T03:04:10.400Z,5.43
2022-12-17T03:06:57.311Z,5.12
2022-12-17T03:09:43.694Z,5.07
2022-12-17T03:12:30.233Z,3.97
2022-12-17T03:15:16.784Z,5.25
2022-12-17T03:18:03.629Z,5.62
2022-12-17T03:20:52.668Z,5.32
2022-12-17T03:23:39.594Z,4.95
2022-12-17T03:26:28.916Z,5.43
2022-12-17T03:29:15.404Z,5.03
2022-12-17T03:32:02.029Z,4.10
2022-12-17T03:34:48.886Z,5.45
2022-12-17T03:37:35.182Z,5.12
2022-12-17T03:40:22.740Z,5.03
2022-12-17T03:43:09.196Z,5.65
2022-12-17T03:45:56.708Z,4.97
2022-12-17T03:48:43.260Z,4.78
2022-12-17T03:51:30.082Z,5.87
2022-12-17T03:54:19.111Z,6.12
2022-12-17T03:57:05.736Z,7.22
2022-12-17T03:59:52.116Z,4.15
2022-12-17T04:02:38.939Z,4.47
2022-12-17T04:05:26.318Z,5.20
2022-12-17T04:08:12.941Z,4.57
2022-12-17T04:10:59.745Z,5.95
2022-12-17T04:13:48.896Z,4.55
2022-12-17T04:16:35.650Z,6.53
2022-12-17T04:19:22.090Z,5.72
2022-12-17T04:22:08.954Z,5.03
2022-12-17T04:24:55.375Z,5.05
2022-12-17T04:27:42.191Z,5.53
2022-12-17T04:30:29.369Z,5.25
2022-12-17T04:33:19.489Z,5.25
2022-12-17T04:36:06.027Z,4.32
2022-12-17T04:38:56.071Z,4.35
2022-12-17T04:41:42.593Z,5.37
2022-12-17T04:44:28.979Z,4.87
2022-12-17T04:47:15.503Z,5.60
2022-12-17T04:50:05.073Z,5.28
2022-12-17T04:52:51.590Z,4.95
2022-12-17T04:55:38.243Z,5.12
2022-12-17T04:58:25.338Z,6.12
2022-12-17T05:01:15.180Z,4.90
2022-12-17T05:04:01.503Z,4.97
2022-12-17T05:06:49.044Z,4.80
2022-12-17T05:09:35.545Z,5.25
2022-12-17T05:12:22.582Z,4.75
2022-12-17T05:15:09.183Z,5.53
2022-12-17T05:17:56.319Z,3.53
2022-12-17T05:20:43.262Z,4.47
2022-12-17T05:23:30.423Z,3.80
2022-12-17T05:26:37.287Z,4.18
2022-12-17T05:29:43.927Z,5.32
2022-12-17T05:32:30.431Z,4.47
2022-12-17T05:35:16.991Z,5.28
2022-12-17T05:38:06.086Z,4.30
2022-12-17T05:40:52.968Z,5.25
2022-12-17T05:43:39.410Z,4.97
2022-12-17T05:46:26.393Z,5.70
2022-12-17T05:49:12.922Z,5.32
2022-12-17T05:51:59.845Z,4.72
2022-12-17T05:54:46.205Z,6.05
2022-12-17T05:57:32.906Z,7.12
2022-12-17T06:00:19.280Z,6.07
2022-12-17T06:03:05.954Z,5.78
2022-12-17T06:05:52.294Z,5.45
2022-12-17T06:08:38.816Z,5.75
2022-12-17T06:11:25.357Z,5.65
2022-12-17T06:14:12.204Z,4.25
2022-12-17T06:16:58.320Z,5.87
2022-12-17T06:19:45.207Z,5.35
2022-12-17T06:22:31.635Z,5.78
2022-12-17T06:25:18.447Z,4.87
2022-12-17T06:28:04.815Z,5.62
2022-12-17T06:30:51.762Z,6.50
2022-12-17T06:33:38.338Z,6.60
2022-12-17T06:36:28.135Z,5.93
2022-12-17T06:39:14.279Z,7.10
2022-12-17T06:42:05.153Z,5.47
2022-12-17T06:44:55.241Z,6.03
2022-12-17T06:47:41.771Z,4.82
2022-12-17T06:50:29.102Z,6.28
2022-12-17T06:53:23.665Z,5.35
2022-12-17T06:56:10.466Z,5.32
2022-12-17T06:58:57.163Z,4.68
2022-12-17T07:01:43.721Z,4.90
2022-12-17T07:04:35.374Z,6.43
2022-12-17T07:07:22.008Z,6.87
2022-12-17T07:10:13.898Z,6.85
2022-12-17T07:13:00.840Z,6.35
2022-12-17T07:15:47.656Z,6.00
2022-12-17T07:18:33.939Z,7.12
2022-12-17T07:21:20.883Z,6.75
2022-12-17T07:24:07.338Z,6.47
2022-12-17T07:26:53.993Z,8.05
2022-12-17T07:29:40.416Z,6.47
2022-12-17T07:32:27.019Z,8.35
2022-12-17T07:35:13.987Z,7.50
2022-12-17T07:38:00.641Z,6.50
2022-12-17T07:40:46.864Z,5.82
2022-12-17T07:43:35.164Z,7.53
2022-12-17T07:46:21.874Z,6.28
2022-12-17T07:49:08.826Z,7.00
2022-12-17T07:51:55.250Z,7.25
2022-12-17T07:54:42.019Z,5.82
2022-12-17T07:57:28.253Z,6.62
2022-12-17T08:00:14.889Z,5.62
2022-12-17T08:03:02.053Z,6.40
2022-12-17T08:08:52.612Z,5.40
2022-12-17T08:11:40.015Z,5.12
2022-12-17T08:14:26.967Z,6.40
2022-12-17T08:17:13.197Z,6.57
2022-12-17T08:20:00.680Z,5.87
2022-12-17T08:22:47.936Z,5.32
2022-12-17T08:25:34.270Z,5.82
2022-12-17T08:28:49.049Z,6.00
2022-12-17T08:31:30.500Z,4.28
2022-12-17T08:34:19.937Z,6.72
2022-12-17T08:37:26.542Z,6.00
2022-12-17T08:40:12.786Z,5.90
2022-12-17T08:42:59.792Z,6.40
2022-12-17T08:45:45.902Z,5.07
2022-12-17T08:48:32.510Z,5.60
2022-12-17T08:51:18.698Z,4.18
2022-12-17T08:54:05.508Z,5.45
2022-12-17T08:56:51.915Z,5.78
2022-12-17T08:59:39.565Z,3.87
2022-12-17T09:02:28.413Z,5.05
2022-12-17T09:05:15.300Z,4.43
2022-12-17T09:08:07.151Z,6.45
2022-12-17T09:10:53.762Z,4.75
2022-12-17T09:13:40.404Z,5.28
2022-12-17T09:16:27.035Z,5.43
2022-12-17T09:19:17.468Z,5.55
2022-12-17T09:22:04.221Z,4.30
2022-12-17T09:24:50.809Z,6.87
2022-12-17T09:27:37.517Z,5.78
2022-12-17T09:30:24.538Z,6.12
2022-12-17T09:33:11.588Z,4.45
2022-12-17T09:35:59.148Z,5.03
2022-12-17T09:38:45.938Z,5.57
2022-12-17T09:42:12.734Z,4.70
2022-12-17T09:44:59.380Z,6.18
2022-12-17T09:48:17.400Z,5.90
2022-12-17T09:51:05.854Z,6.22
2022-12-17T09:54:08.733Z,6.20
2022-12-17T09:56:57.631Z,4.75
2022-12-17T09:59:47.996Z,6.60
2022-12-17T10:02:39.016Z,4.57
2022-12-17T10:05:32.118Z,5.57
2022-12-17T10:08:19.214Z,3.83
2022-12-17T10:11:06.129Z,3.97
2022-12-17T10:13:52.489Z,5.95
2022-12-17T10:16:47.598Z,5.70
2022-12-17T10:19:51.470Z,3.58
2022-12-17T10:22:39.950Z,5.70
2022-12-17T10:25:39.749Z,4.40
2022-12-17T10:28:41.499Z,5.12
2022-12-17T10:31:41.987Z,4.12
2022-12-17T10:34:35.234Z,4.60
2022-12-17T10:37:22.377Z,5.97
2022-12-17T10:40:29.947Z,6.05
2022-12-17T10:43:19.567Z,6.43
2022-12-17T10:46:16.159Z,4.78
2022-12-17T10:49:04.694Z,7.03
2022-12-17T10:51:57.257Z,8.15
2022-12-17T10:54:52.710Z,9.40
2022-12-17T10:57:57.831Z,7.95
2022-12-17T11:00:51.128Z,8.20
2022-12-17T11:03:51.308Z,7.80
2022-12-17T11:06:54.488Z,5.47
2022-12-17T11:10:03.808Z,5.53
2022-12-17T11:13:07.523Z,4.85
2022-12-17T11:16:04.641Z,5.10
2022-12-17T11:18:58.531Z,4.53
2022-12-17T11:21:54.513Z,5.80
2022-12-17T11:24:46.595Z,5.18
2022-12-17T11:27:42.970Z,5.55
2022-12-17T11:30:33.385Z,6.22
2022-12-17T11:33:37.077Z,4.10
2022-12-17T11:37:02.195Z,6.28
2022-12-17T11:39:54.886Z,5.18
2022-12-17T11:42:53.653Z,5.07
2022-12-17T11:45:56.223Z,4.97
2022-12-17T11:49:17.785Z,5.55
2022-12-17T11:52:37.978Z,4.68
2022-12-17T11:55:49.457Z,4.20
2022-12-17T11:58:45.827Z,5.65
2022-12-17T12:02:02.643Z,5.72
2022-12-17T12:05:12.600Z,6.00
2022-12-17T12:08:29.954Z,4.47
2022-12-17T12:11:51.826Z,5.03
2022-12-17T12:15:03.771Z,5.50
2022-12-17T12:18:07.463Z,3.42
2022-12-17T12:21:02.089Z,5.65
2022-12-17T12:24:22.803Z,5.82
2022-12-17T12:27:23.619Z,3.95
2022-12-17T12:30:24.556Z,3.78
2022-12-17T12:33:19.685Z,5.45
2022-12-17T12:36:07.153Z,4.55
2022-12-17T12:39:01.161Z,5.05
2022-12-17T12:41:58.064Z,5.47
2022-12-17T12:45:10.612Z,5.28
2022-12-17T12:48:22.078Z,5.30
2022-12-17T12:51:45.207Z,4.95
2022-12-17T12:54:51.590Z,5.10
2022-12-17T12:57:53.011Z,4.60
2022-12-17T13:00:51.137Z,5.93
2022-12-17T13:03:47.423Z,6.28
2022-12-17T13:06:46.638Z,7.68
2022-12-17T13:09:18.293Z,6.43
2022-12-17T13:12:02.705Z,4.68
2022-12-17T13:14:50.306Z,5.78
2022-12-17T13:17:18.456Z,5.93
2022-12-17T13:19:59.898Z,5.75
2022-12-17T13:22:30.561Z,5.95
2022-12-17T13:25:17.392Z,5.25
2022-12-17T13:27:46.218Z,4.65
2022-12-17T13:30:33.416Z,4.43
2022-12-17T13:33:04.451Z,5.70
2022-12-17T13:35:34.907Z,5.28
2022-12-17T13:38:21.647Z,5.28
2022-12-17T13:41:19.733Z,5.28
2022-12-17T13:43:58.955Z,5.00
2022-12-17T13:46:37.035Z,6.22
2022-12-17T13:49:16.619Z,6.05
2022-12-17T13:51:44.490Z,5.28
2022-12-17T13:54:16.641Z,5.22
2022-12-17T13:56:45.456Z,5.67
2022-12-17T13:59:24.264Z,5.82
2022-12-17T14:01:55.299Z,5.28
2022-12-17T14:04:27.412Z,5.55
2022-12-17T14:07:02.980Z,4.55
2022-12-17T14:09:39.654Z,4.30
2022-12-17T14:12:24.093Z,4.20
2022-12-17T14:14:59.017Z,5.45
2022-12-17T14:17:44.717Z,5.80
2022-12-17T14:20:19.724Z,5.30
2022-12-17T14:22:52.710Z,5.22
2022-12-17T14:25:31.313Z,5.40
2022-12-17T14:28:02.237Z,4.85
2022-12-17T14:30:56.606Z,5.00
2022-12-17T14:33:32.661Z,5.10
2022-12-17T14:36:18.427Z,4.60
2022-12-17T14:39:01.130Z,5.82
2022-12-17T14:44:27.837Z,4.80
2022-12-17T14:47:13.541Z,5.70
2022-12-17T14:49:55.980Z,5.78
2022-12-17T14:52:33.168Z,6.15
2022-12-17T14:55:00.957Z,6.80
2022-12-17T14:57:31.000Z,6.87
2022-12-17T14:59:58.767Z,6.30
2022-12-17T15:02:29.507Z,6.12
2022-12-17T15:05:03.175Z,6.25
2022-12-17T15:07:32.478Z,6.70
2022-12-17T15:10:00.765Z,6.65
2022-12-17T15:12:30.468Z,5.45
2022-12-17T15:15:01.430Z,5.57
2022-12-17T15:17:31.350Z,5.40
2022-12-17T15:19:59.202Z,6.25
2022-12-17T15:22:27.014Z,5.25
2022-12-17T15:24:55.018Z,6.03
2022-12-17T15:27:22.880Z,6.35
2022-12-17T15:29:50.719Z,5.20
2022-12-17T15:32:21.765Z,5.72
2022-12-17T15:34:50.865Z,6.28
2022-12-17T15:37:25.275Z,6.35
2022-12-17T15:39:53.652Z,4.97
2022-12-17T15:42:43.140Z,5.07
2022-12-17T15:45:11.351Z,6.93
2022-12-17T15:47:39.586Z,6.03
2022-12-17T15:50:08.122Z,5.45
2022-12-17T15:52:36.059Z,6.70
2022-12-17T15:55:04.418Z,6.15
2022-12-17T15:57:32.349Z,7.05
2022-12-17T16:00:00.245Z,5.62
2022-12-17T16:02:28.580Z,5.32
2022-12-17T16:04:57.007Z,6.22
2022-12-17T16:07:30.322Z,6.37
2022-12-17T16:10:04.545Z,6.75
2022-12-17T16:12:34.000Z,5.70
2022-12-17T16:15:03.030Z,5.60
2022-12-17T16:17:32.181Z,6.15
2022-12-17T16:20:01.006Z,6.12
2022-12-17T16:22:30.395Z,4.15
2022-12-17T16:24:58.305Z,4.70
2022-12-17T16:27:26.108Z,6.35
2022-12-17T16:29:54.359Z,5.00
2022-12-17T16:32:22.275Z,4.93
2022-12-17T16:34:50.134Z,5.00
2022-12-17T16:37:19.153Z,5.15
2022-12-17T16:39:47.041Z,6.43
2022-12-17T16:42:15.032Z,6.00
2022-12-17T16:44:43.445Z,6.30
2022-12-17T16:47:11.412Z,6.28
2022-12-17T16:49:39.136Z,6.40
2022-12-17T16:52:07.428Z,5.87
2022-12-17T16:54:35.150Z,6.07
2022-12-17T16:57:03.082Z,6.75
2022-12-17T16:59:31.311Z,6.60
2022-12-17T17:02:00.510Z,6.20
2022-12-17T17:04:28.903Z,7.00
2022-12-17T17:06:57.958Z,5.47
2022-12-17T17:09:26.040Z,7.60
2022-12-17T17:11:59.001Z,6.78
2022-12-17T17:14:27.986Z,6.97
2022-12-17T17:16:55.774Z,7.32
2022-12-17T17:19:23.679Z,6.07
2022-12-17T17:21:54.471Z,6.70
2022-12-17T17:24:27.183Z,6.15
2022-12-17T17:26:56.280Z,7.72
2022-12-17T17:29:24.235Z,8.38
2022-12-17T17:34:40.618Z,9.15
2022-12-17T17:37:08.510Z,7.72
2022-12-17T17:39:36.642Z,6.97
2022-12-17T17:42:05.464Z,9.20
2022-12-17T17:44:33.422Z,7.65
2022-12-17T17:47:01.903Z,8.25
2022-12-17T17:49:30.312Z,7.87
2022-12-17T17:52:13.593Z,7.43
2022-12-17T17:54:42.727Z,8.57
2022-12-17T17:57:10.852Z,7.95
2022-12-17T17:59:39.876Z,5.72
2022-12-17T18:02:10.135Z,6.82
2022-12-17T18:04:38.535Z,6.03
2022-12-17T18:07:24.831Z,7.43
2022-12-17T18:09:54.899Z,7.62
2022-12-17T18:12:42.001Z,7.37
2022-12-17T18:15:15.432Z,6.28
2022-12-17T18:17:51.198Z,7.57
2022-12-17T18:20:19.577Z,8.20
2022-12-17T18:22:47.542Z,6.45
2022-12-17T18:25:16.724Z,7.50
2022-12-17T18:27:45.697Z,6.68
2022-12-17T18:30:14.728Z,7.68
2022-12-17T18:32:42.931Z,7.10
2022-12-17T18:35:11.134Z,7.22
2022-12-17T18:37:39.290Z,7.18
2022-12-17T18:40:08.253Z,8.07
2022-12-17T18:42:55.016Z,8.05
2022-12-17T18:45:23.112Z,10.13
2022-12-17T18:47:51.664Z,8.45
2022-12-17T18:50:22.815Z,6.45
2022-12-17T18:52:51.124Z,7.03
2022-12-17T18:55:19.275Z,6.40
2022-12-17T18:57:47.597Z,9.32
2022-12-17T19:00:15.760Z,6.57
2022-12-17T19:02:44.600Z,8.00
2022-12-17T19:05:12.610Z,7.15
2022-12-17T19:07:40.937Z,6.93
2022-12-17T19:10:09.385Z,7.25
2022-12-17T19:12:37.322Z,5.93
2022-12-17T19:15:05.906Z,7.32
2022-12-17T19:17:34.222Z,8.32
2022-12-17T19:20:02.204Z,7.50
2022-12-17T19:22:30.734Z,7.93
2022-12-17T19:24:58.808Z,8.80
2022-12-17T19:27:26.655Z,7.80
2022-12-17T19:29:57.390Z,8.73
2022-12-17T19:32:25.726Z,6.68
2022-12-17T19:34:53.600Z,6.57
2022-12-17T19:37:22.297Z,7.30
2022-12-17T19:39:50.467Z,6.93
2022-12-17T19:42:33.444Z,6.37
2022-12-17T19:45:05.691Z,6.45
2022-12-17T19:47:33.732Z,6.75
2022-12-17T19:50:02.117Z,7.68
2022-12-17T19:52:30.693Z,7.10
2022-12-17T19:54:58.635Z,7.55
2022-12-17T19:57:26.413Z,7.40
2022-12-17T19:59:54.708Z,7.18
2022-12-17T20:02:24.106Z,7.78
2022-12-17T20:04:57.944Z,7.95
2022-12-17T20:07:25.992Z,7.68
2022-12-17T20:09:57.007Z,7.32
2022-12-17T20:12:25.056Z,7.62
2022-12-17T20:14:52.919Z,7.47
2022-12-17T20:17:21.350Z,7.18
2022-12-17T20:19:49.895Z,8.40
2022-12-17T20:22:17.647Z,7.90
2022-12-17T20:24:45.956Z,7.85
2022-12-17T20:27:14.238Z,8.43
2022-12-17T20:29:42.095Z,6.65
2022-12-17T20:32:10.392Z,7.12
2022-12-17T20:34:38.314Z,7.60
2022-12-17T20:37:06.103Z,5.53
2022-12-17T20:39:34.239Z,8.10
2022-12-17T20:42:02.102Z,7.05
2022-12-17T20:44:30.021Z,7.47
2022-12-17T20:46:58.467Z,7.65
2022-12-17T20:49:26.306Z,9.80
2022-12-17T20:51:54.454Z,8.00
2022-12-17T20:54:22.640Z,6.62
2022-12-17T20:56:50.480Z,7.28
2022-12-17T20:59:19.664Z,6.75
2022-12-17T21:01:52.995Z,8.15
2022-12-17T21:04:24.578Z,7.62
2022-12-17T21:06:53.318Z,7.40
2022-12-17T21:09:22.950Z,6.82
2022-12-17T21:11:50.735Z,7.60
2022-12-17T21:14:20.117Z,7.82
2022-12-17T21:16:48.245Z,7.32
2022-12-17T21:19:18.951Z,7.00
2022-12-17T21:21:50.437Z,7.60
2022-12-17T21:24:18.313Z,9.23
2022-12-17T21:26:47.538Z,10.20
2022-12-17T21:29:17.527Z,8.20
2022-12-17T21:31:51.586Z,7.85
2022-12-17T21:34:22.138Z,8.50
2022-12-17T21:36:51.297Z,7.78
2022-12-17T21:39:20.748Z,8.50
2022-12-17T21:42:07.867Z,9.10
2022-12-17T21:44:40.105Z,8.52
2022-12-17T21:47:10.975Z,8.70
2022-12-17T21:49:44.488Z,7.47
2022-12-17T21:52:12.767Z,7.18
2022-12-17T21:54:41.030Z,6.30
2022-12-17T21:57:08.972Z,7.28
2022-12-17T21:59:36.794Z,6.35
2022-12-17T22:02:10.818Z,6.45
2022-12-17T22:04:39.384Z,5.57
2022-12-17T22:07:15.846Z,7.70
2022-12-17T22:10:25.196Z,7.50
2022-12-17T22:12:56.670Z,7.32
2022-12-17T22:15:25.958Z,6.75
2022-12-17T22:17:58.561Z,7.12
2022-12-17T22:20:27.748Z,7.12
2022-12-17T22:22:55.946Z,7.05
2022-12-17T22:25:27.061Z,7.32
2022-12-17T22:27:55.137Z,8.43
2022-12-17T22:30:52.026Z,6.43
2022-12-17T22:33:44.876Z,8.35
2022-12-17T22:37:59.663Z,7.15
2022-12-17T22:41:30.533Z,6.93
2022-12-17T22:44:31.064Z,6.43
2022-12-17T22:45:06.096Z,6.55
2022-12-17T22:47:36.613Z,8.98
2022-12-17T22:50:05.194Z,6.80
2022-12-17T22:52:33.901Z,8.43
2022-12-17T22:55:02.466Z,8.15
2022-12-17T22:57:37.617Z,8.93
2022-12-17T23:00:16.209Z,10.98
2022-12-17T23:02:44.528Z,7.07
2022-12-17T23:05:12.290Z,10.18
2022-12-17T23:07:40.141Z,6.37
2022-12-17T23:10:08.621Z,10.52
2022-12-17T23:12:52.059Z,8.45
2022-12-17T23:15:35.083Z,7.97
2022-12-17T23:18:05.974Z,9.15
2022-12-17T23:20:37.183Z,8.50
2022-12-17T23:23:05.023Z,9.73
2022-12-17T23:25:33.337Z,10.43
2022-12-17T23:28:01.675Z,8.90
2022-12-17T23:30:29.643Z,8.95
2022-12-17T23:32:57.443Z,12.18
2022-12-17T23:35:25.682Z,10.40
2022-12-17T23:37:53.505Z,9.40
2022-12-17T23:40:22.298Z,8.50
2022-12-17T23:42:50.429Z,5.62
2022-12-17T23:45:18.307Z,2.60
2022-12-17T23:47:46.139Z,5.30
2022-12-17T23:50:14.601Z,5.32
2022-12-17T23:52:45.465Z,2.20
2022-12-17T23:55:16.566Z,3.28
2022-12-17T23:57:44.781Z,2.15
